VDPPVTCC

Guest
Details From VDPP - Phnom Penh Intl
To VTCC - Chiang Mai Intl
Flight Number -
Tags generated
Created
Modified
Stats Distance 594 nm / 1,100 km
Max Altitude 34,000 ft / 10,363 m
Waypoints 8
Social Downloads 1
Likes 0
Share VATSIM

Download

Looking for another format? Having issues loading an existing format? Contact us
Advertisement - Login to hide

Notes

Basic altitude profile: - Ascent Rate: 2500ft/min - Ascent Speed: 250kts - Cruise Altitude: 35000ft - Cruise Speed: 420kts - Descent Rate: 1500ft/min - Descent Speed: 250kts Options: - Use NATs: yes - Use PACOTS: yes - Use low airways: yes - Use high airways: yes

Route

VDPP PNH R468 BKK A464 CMA VTCC

ID Type Via Altitude Latitude Longitude Leg Dist Tot Dist Heading (true) Name
O VDPP APT - 0 ft / 0 m 11.54654˚ 104.84414˚ - 0 nm - Phnom Penh Intl
PNH VOR - 0 ft / 0 m 11.54667˚ 104.84167˚ 0 nm 0 nm 273° / 273° PHNOM PENH VOR-DME
BOKAK FIX R468 (AWY-LO) 34,000 ft / 10,363 m 12.96008˚ 102.49649˚ 161 nm 161 nm 302° / 301° -
GOMES FIX R468 (AWY-HI) 34,000 ft / 10,363 m 13.40171˚ 101.58492˚ 59 nm 221 nm 297° / 296° -
BKK VOR R468 (AWY-HI) 34,000 ft / 10,363 m 13.89356˚ 100.59619˚ 64 nm 286 nm 297° / 297° BANGKOK VOR-DME
BEKOD FIX A464 (AWY-HI) 32,600 ft / 9,936 m 16.35478˚ 99.77677˚ 155 nm 441 nm 342° / 342° -
CMA VOR A464 (AWY-LO) 6,500 ft / 1,981 m 18.76612˚ 98.96126˚ 152 nm 593 nm 342° / 342° CHIANG MAI VOR-DME
O VTCC APT - 0 ft / 0 m 18.76685˚ 98.96264˚ 0 nm 593 nm 61° / 61° Chiang Mai Intl

Altitude Profile

Advertisement - Login to hide

Weather


0- 5 10 15 20 25 30 35+ Temperature / ° C

Clouds and Precipitation
Forecast for 2017-12-14 18:00 UTC. Updated 2 hours ago

Ground ~20,000 ft ~40,000 ft Winds

VDPP

Details ICAO VDPP (PNH)
Name Phnom Penh Intl
Region Cambodia
Timezone Asia/Phnom_Penh (UTC+7.0)
Stats Elevation 40 ft / 12 m (AMSL)
Location 11.546542° 104.844142°
Runways 1
Magnetic Variation 0.493° W

METAR

VDPP 141900Z VRB02KT 9000 FEW017 25/24 Q1009

Decode

TAF

TAF VDPP 141700Z 1418/1512 29005KT 9999 SCT017= TAF VDSR 141700Z 1418/1512 34005KT 9999 SCT017

Decode

Departure Runways

ID Width Length Bearing (true) Bearing (mag) Surface Threshold Offset Overrun Length
05 144 ft / 44 m 9,815 ft / 2,992 m 45.61° 46.10° Asphalt 400 ft / 122 m 0 ft / 0 m
23 144 ft / 44 m 9,815 ft / 2,992 m 225.61° 226.10° Asphalt 492 ft / 150 m 0 ft / 0 m

VTCC

Details ICAO VTCC (CNX)
Name Chiang Mai Intl
Region Thailand
Timezone Asia/Bangkok (UTC+7.0)
Stats Elevation 1,036 ft / 316 m (AMSL)
Location 18.766845° 98.962643°
Runways 1
Magnetic Variation 0.738° W

METAR

VTCC 141900Z 00000KT 9999 FEW035 19/16 Q1015 NOSIG

Decode

TAF

TAF VTCC 141700Z 1418/1524 00000KT 9999 FEW035

Decode

Destination Runways

ID Width Length Bearing (true) Bearing (mag) Surface Threshold Offset Overrun Length
18 148 ft / 45 m 10,237 ft / 3,120 m 180.22° 180.96° Asphalt 0 ft / 0 m 974 ft / 297 m
36 148 ft / 45 m 10,237 ft / 3,120 m 0.22° 0.96° Asphalt 0 ft / 0 m 341 ft / 104 m

Approach Navaids

Runway Type Ident Frequency Range Bearing (true) Bearing (mag) Slope Elevation
36 Localiser ICMA 109.90 MHz 18 nm / 33 km 359.49° 0.23° - 1,035 ft / 315 m (AMSL)
36 Glidescope ICMA 109.90 MHz 10 nm / 19 km 0.22° 0.96° 3.00° 1,005 ft / 306 m (AMSL)
36 DME ICMA 109.90 MHz 18 nm / 33 km - - - 1,035 ft / 315 m (AMSL)